Terminal Aerodrome Forecast
Issued by NWS Charleston, WV

Current Version | Previous Version | Graphics & Text | Print | Product List | Glossary On
Versions: 1 2 3 4 5 6 7 8 9 10 11 12 13 14 15 16 17 18 19 20 21 22 23 24
610
FTUS41 KRLX 201500 AAA
TAFHTS
TAF AMD
KHTS 201500Z 2015/2112 18004KT P6SM BKN130
     FM201700 20007KT P6SM -SHRA BKN040
     FM210200 20006KT 5SM -SHRA OVC025
     FM210500 23007KT 3SM -SHRA OVC025
     FM210700 24007KT 3SM -SHRA SCT004 OVC010=

USA.gov is the U.S. government's official web portal to all federal, state and local government web resources and services.